CheckWX is a tool to help pilots better visualize weather data.  It is not intended as a substitute for an official pre-flight weather briefing.

06:56:50 UTC

CYWK METAR
Wabush Airport
Wabush, Canada
Current

57 mins ago

CYWK 210600Z AUTO 09008KT 9SM BKN039 OVC046 02/M03 A2981 RMK SLP116
Observed
May-21 @ 06:00 UTC
Wind
  • 090° at 8 KTS
Visibility
9 SM
Flight Rules
VFR
Cloud Levels
  • Broken at 3,900' AGL
  • Overcast at 4,600' AGL
Temperature
C / 36°F
Dewpoint
-3°C / 27°F
Humidity
70%
Altimeter
29.81" Hg
Pressure
1009.52 hPa
Previous

2 hours ago

CYWK 210500Z AUTO 09008KT 9SM OVC110 02/M03 A2982 RMK SLP117
Observed
May-21 @ 05:00 UTC
Wind
  • 090° at 8 KTS
Visibility
9 SM
Flight Rules
VFR
Cloud Levels
  • Overcast at 11,000' AGL
Temperature
C / 36°F
Dewpoint
-3°C / 27°F
Humidity
70%
Altimeter
29.82" Hg
Pressure
1009.82 hPa
Previous

3 hours ago

CYWK 210400Z AUTO 08008G17KT 9SM OVC095 03/M03 A2982 RMK SLP118
Observed
May-21 @ 04:00 UTC
Wind
  • 080° at 8 KTS
  • Gusting to 17 KTS
Visibility
9 SM
Flight Rules
VFR
Cloud Levels
  • Overcast at 9,500' AGL
Temperature
C / 37°F
Dewpoint
-3°C / 27°F
Humidity
65%
Altimeter
29.82" Hg
Pressure
1009.82 hPa